createdAt,value
2022-08-17T00:04:18.032Z,100986.38
2022-08-17T00:09:20.369Z,101000.25
2022-08-17T00:14:22.047Z,101008.28
2022-08-17T00:19:25.661Z,101034.78
2022-08-17T00:24:28.413Z,101002.84
2022-08-17T00:29:30.029Z,100992.34
2022-08-17T00:34:31.904Z,100981.13
2022-08-17T00:39:35.673Z,100973.13
2022-08-17T00:44:37.344Z,100965.25
2022-08-17T00:49:38.937Z,100963.59
2022-08-17T00:54:46.208Z,100965.34
2022-08-17T01:00:02.368Z,100979.50
2022-08-17T01:05:08.053Z,100961.84
2022-08-17T01:10:57.176Z,100954.94
2022-08-17T01:15:37.684Z,100958.56
2022-08-17T01:20:48.447Z,100959.50
2022-08-17T01:25:52.702Z,100965.88
2022-08-17T01:30:57.879Z,100966.22
2022-08-17T01:36:00.758Z,100965.44
2022-08-17T01:41:08.314Z,100972.88
2022-08-17T01:46:16.623Z,100980.06
2022-08-17T01:51:19.817Z,100983.50
2022-08-17T01:56:24.306Z,100988.59
2022-08-17T02:01:30.569Z,100983.41
2022-08-17T02:06:53.639Z,100986.09
2022-08-17T02:11:58.046Z,100989.75
2022-08-17T02:16:59.765Z,100977.78
2022-08-17T02:22:01.564Z,100991.75
2022-08-17T02:27:03.870Z,100986.44
2022-08-17T02:32:06.364Z,100996.00
2022-08-17T02:37:08.679Z,101005.66
2022-08-17T02:42:10.407Z,100984.69
2022-08-17T02:47:12.321Z,100991.84
2022-08-17T02:52:17.011Z,100989.97
2022-08-17T02:57:39.017Z,100989.91
2022-08-17T03:02:42.361Z,100997.75
2022-08-17T03:07:44.096Z,100987.22
2022-08-17T03:12:46.488Z,100995.75
2022-08-17T03:17:48.275Z,100985.41
2022-08-17T03:22:55.727Z,100998.41
2022-08-17T03:28:06.017Z,100994.84
2022-08-17T03:33:10.290Z,100982.50
2022-08-17T03:38:15.031Z,100984.22
2022-08-17T03:43:21.136Z,100976.28
2022-08-17T03:48:42.457Z,100982.38
2022-08-17T03:54:17.129Z,100977.13
2022-08-17T03:59:24.447Z,100970.13
2022-08-17T04:04:28.132Z,100968.19
2022-08-17T04:09:29.781Z,100950.81
2022-08-17T04:14:36.430Z,100955.19
2022-08-17T04:19:55.439Z,100946.53
2022-08-17T04:24:57.308Z,100956.19
2022-08-17T04:30:00.862Z,100950.94
2022-08-17T04:35:02.488Z,100958.75
2022-08-17T04:40:27.129Z,100954.38
2022-08-17T04:45:32.334Z,100950.94
2022-08-17T04:50:42.738Z,100957.06
2022-08-17T04:55:46.217Z,100964.88
2022-08-17T05:00:47.987Z,100965.03
2022-08-17T05:05:50.031Z,100956.22
2022-08-17T05:10:52.175Z,100959.75
2022-08-17T05:15:56.511Z,100957.84
2022-08-17T05:20:58.338Z,100954.34
2022-08-17T05:26:00.057Z,100955.13
2022-08-17T05:31:04.116Z,100937.28
2022-08-17T05:36:08.330Z,100938.16
2022-08-17T05:41:11.590Z,100930.97
2022-08-17T05:46:19.823Z,100935.19
2022-08-17T05:51:31.926Z,100917.41
2022-08-17T05:57:12.373Z,100923.59
2022-08-17T06:02:32.730Z,100914.88
2022-08-17T06:07:58.658Z,100914.78
2022-08-17T06:13:21.551Z,100902.22
2022-08-17T06:18:29.202Z,100908.56
2022-08-17T06:23:36.563Z,100890.97
2022-08-17T06:28:49.203Z,100887.63
2022-08-17T06:33:50.877Z,100878.50
2022-08-17T06:39:03.175Z,100900.94
2022-08-17T06:44:49.900Z,100929.44
2022-08-17T06:49:58.501Z,100941.69
2022-08-17T06:55:20.273Z,100964.50
2022-08-17T07:00:26.795Z,100929.25
2022-08-17T07:05:42.786Z,100932.06
2022-08-17T07:10:54.824Z,100959.69
2022-08-17T07:16:07.932Z,100960.94
2022-08-17T07:21:26.467Z,100947.31
2022-08-17T07:26:28.688Z,100960.13
2022-08-17T07:31:33.507Z,100944.06
2022-08-17T07:36:35.374Z,100942.50
2022-08-17T07:41:53.060Z,100954.72
2022-08-17T07:47:38.567Z,100937.97
2022-08-17T07:52:51.496Z,100944.69
2022-08-17T07:57:59.229Z,100951.31
2022-08-17T08:03:14.930Z,100951.16
2022-08-17T08:08:26.632Z,100951.16
2022-08-17T08:13:30.957Z,100954.19
2022-08-17T08:18:53.613Z,100954.06
2022-08-17T08:24:25.902Z,100965.72
2022-08-17T08:29:41.335Z,100960.38
2022-08-17T08:35:08.062Z,100961.97
2022-08-17T08:40:31.048Z,100963.25
2022-08-17T08:45:41.795Z,100951.50
2022-08-17T08:50:57.116Z,100955.03
2022-08-17T08:56:30.351Z,100948.56
2022-08-17T09:02:00.433Z,100944.59
2022-08-17T09:07:07.621Z,100941.31
2022-08-17T09:12:32.128Z,100940.06
2022-08-17T09:17:43.334Z,100929.72
2022-08-17T09:22:50.909Z,100939.09
2022-08-17T09:28:00.979Z,100939.66
2022-08-17T09:33:08.284Z,100936.16
2022-08-17T09:38:21.947Z,100929.88
2022-08-17T09:43:54.764Z,100934.78
2022-08-17T09:49:11.958Z,100937.59
2022-08-17T09:54:40.889Z,100938.41
2022-08-17T10:00:16.568Z,100934.88
2022-08-17T10:05:22.875Z,100926.03
2022-08-17T10:10:56.878Z,100931.38
2022-08-17T10:16:11.047Z,100933.88
2022-08-17T10:21:33.662Z,100928.16
2022-08-17T10:26:56.825Z,100924.59
2022-08-17T10:32:08.538Z,100918.81
2022-08-17T10:37:28.434Z,100921.97
2022-08-17T10:42:37.974Z,100924.03
2022-08-17T10:48:07.026Z,100944.75
2022-08-17T10:53:19.866Z,100940.38
2022-08-17T11:05:16.663Z,100943.03
2022-08-17T11:10:51.731Z,100941.69
2022-08-17T11:16:35.102Z,100953.78
2022-08-17T11:22:01.623Z,100972.06
2022-08-17T11:27:06.257Z,100975.53
2022-08-17T11:32:27.032Z,100974.56
2022-08-17T11:38:02.953Z,100975.13
2022-08-17T11:43:28.846Z,100979.09
2022-08-17T11:49:19.695Z,100974.09
2022-08-17T11:54:33.379Z,100979.31
2022-08-17T11:59:40.274Z,100969.03
2022-08-17T12:05:16.592Z,100988.28
2022-08-17T12:10:22.058Z,101003.84
2022-08-17T12:15:35.041Z,101017.47
2022-08-17T12:20:40.861Z,101055.31
2022-08-17T12:25:56.023Z,101090.94
2022-08-17T12:31:02.938Z,101094.78
2022-08-17T12:36:08.606Z,101085.63
2022-08-17T12:41:29.080Z,101079.63
2022-08-17T12:46:46.354Z,101071.06
2022-08-17T12:51:48.720Z,101073.59
2022-08-17T12:56:50.412Z,101089.34
2022-08-17T13:01:54.213Z,101137.72
2022-08-17T13:06:59.794Z,101139.09
2022-08-17T13:12:03.205Z,101142.00
2022-08-17T13:17:12.672Z,101115.25
2022-08-17T13:22:15.227Z,101156.31
2022-08-17T13:27:21.212Z,101178.06
2022-08-17T13:32:44.148Z,101214.91
2022-08-17T13:38:03.638Z,101268.56
2022-08-17T13:43:05.516Z,101263.13
2022-08-17T13:48:16.251Z,101258.09
2022-08-17T13:53:31.306Z,101256.94
2022-08-17T13:58:51.702Z,101289.09
2022-08-17T14:03:53.315Z,101286.44
2022-08-17T14:08:55.910Z,101291.47
2022-08-17T14:13:58.729Z,101283.19
2022-08-17T14:19:00.323Z,101281.50
2022-08-17T14:24:07.328Z,101275.97
2022-08-17T14:29:12.707Z,101262.50
2022-08-17T14:34:17.539Z,101255.09
2022-08-17T14:39:20.811Z,101246.19
2022-08-17T14:44:22.393Z,101242.53
2022-08-17T14:49:25.941Z,101245.03
2022-08-17T14:54:34.302Z,101229.03
2022-08-17T14:59:37.389Z,101224.72
2022-08-17T15:04:44.880Z,101226.31
2022-08-17T15:09:47.213Z,101220.34
2022-08-17T15:14:49.543Z,101196.47
2022-08-17T15:21:26.415Z,101178.16
2022-08-17T15:26:54.693Z,101207.47
2022-08-17T15:32:00.623Z,101183.06
2022-08-17T15:37:02.959Z,101164.06
2022-08-17T15:42:06.016Z,101174.69
2022-08-17T15:47:07.593Z,101157.72
2022-08-17T15:52:21.283Z,101160.00
2022-08-17T15:57:27.673Z,101157.56
2022-08-17T16:03:45.302Z,101176.31
2022-08-17T16:07:53.688Z,101194.94
2022-08-17T16:12:58.856Z,101186.25
2022-08-17T16:18:00.468Z,101185.16
2022-08-17T16:23:03.222Z,101191.69
2022-08-17T16:28:07.070Z,101205.56
2022-08-17T16:33:11.645Z,101207.47
2022-08-17T16:38:13.739Z,101211.47
2022-08-17T16:43:15.466Z,101221.47
2022-08-17T16:48:18.454Z,101222.84
2022-08-17T16:53:20.204Z,101219.78
2022-08-17T16:58:21.882Z,101215.25
2022-08-17T17:03:26.101Z,101227.66
2022-08-17T17:08:44.738Z,101223.88
2022-08-17T17:13:59.630Z,101215.63
2022-08-17T17:19:34.289Z,101210.38
2022-08-17T17:24:56.062Z,101198.53
2022-08-17T17:30:15.301Z,101181.44
2022-08-17T17:35:31.710Z,101199.56
2022-08-17T17:40:39.746Z,101213.41
2022-08-17T17:45:52.231Z,101218.75
2022-08-17T17:51:14.938Z,101241.66
2022-08-17T17:56:50.045Z,101273.31
2022-08-17T18:02:42.548Z,101274.94
2022-08-17T18:07:57.319Z,101285.00
2022-08-17T18:13:17.430Z,101281.25
2022-08-17T18:18:38.068Z,101276.13
2022-08-17T18:23:50.937Z,101268.28
2022-08-17T18:28:55.684Z,101277.41
2022-08-17T18:34:43.861Z,101298.63
2022-08-17T18:39:43.228Z,101299.50
2022-08-17T18:44:46.157Z,101288.13
2022-08-17T18:50:19.320Z,101283.91
2022-08-17T18:55:29.093Z,101293.59
2022-08-17T19:00:35.967Z,101302.44
2022-08-17T19:05:48.450Z,101309.41
2022-08-17T19:10:58.485Z,101324.19
2022-08-17T19:16:20.092Z,101322.84
2022-08-17T19:28:44.293Z,101344.56
2022-08-17T19:33:51.019Z,101352.59
2022-08-17T19:39:05.041Z,101371.03
2022-08-17T19:44:16.018Z,101376.19
2022-08-17T19:49:41.397Z,101370.13
2022-08-17T19:54:58.905Z,101394.66
2022-08-17T20:00:13.767Z,101412.91
2022-08-17T20:05:48.749Z,101385.00
2022-08-17T20:11:20.179Z,101388.50
2022-08-17T20:16:22.912Z,101391.19
2022-08-17T20:21:41.811Z,101431.28
2022-08-17T20:26:58.680Z,101431.16
2022-08-17T20:32:00.473Z,101413.78
2022-08-17T20:37:17.263Z,101420.75
2022-08-17T20:42:21.878Z,101432.09
2022-08-17T20:47:31.594Z,101431.22
2022-08-17T20:52:50.938Z,101439.94
2022-08-17T20:57:52.755Z,101439.03
2022-08-17T21:03:26.967Z,101432.94
2022-08-17T21:08:35.894Z,101438.16
2022-08-17T21:13:52.913Z,101430.38
2022-08-17T21:19:19.211Z,101442.53
2022-08-17T21:24:48.795Z,101416.38
2022-08-17T21:30:15.181Z,101384.09
2022-08-17T21:35:20.289Z,101378.91
2022-08-17T21:40:29.162Z,101375.44
2022-08-17T21:45:37.179Z,101384.16
2022-08-17T21:50:41.736Z,101371.91
2022-08-17T21:55:48.253Z,101405.13
2022-08-17T22:01:21.096Z,101423.47
2022-08-17T22:06:33.437Z,101433.06
2022-08-17T22:11:56.404Z,101436.53
2022-08-17T22:17:30.350Z,101405.16
2022-08-17T22:23:18.411Z,101392.16
2022-08-17T22:28:37.804Z,101395.66
2022-08-17T22:34:01.813Z,101390.41
2022-08-17T22:39:09.576Z,101383.47
2022-08-17T22:44:23.251Z,101420.88
2022-08-17T22:49:33.464Z,101436.59
2022-08-17T22:54:54.030Z,101423.50
2022-08-17T22:59:55.792Z,101420.03
2022-08-17T23:05:42.012Z,101415.66
2022-08-17T23:10:46.565Z,101425.22
2022-08-17T23:15:51.403Z,101465.28
2022-08-17T23:21:07.779Z,101483.56
2022-08-17T23:26:11.397Z,101507.06
2022-08-17T23:31:18.402Z,101506.22
2022-08-17T23:36:52.954Z,101502.69
2022-08-17T23:41:56.396Z,101472.19
2022-08-17T23:46:58.200Z,101426.84
2022-08-17T23:52:01.993Z,101415.66
2022-08-17T23:58:10.290Z,101420.88
